Time;durP1;ratioP1;P1;durP2;ratioP2;P2;SDS_P1;SDS_P2;PMS_P1;PMS_P2;Temp;Humidity;BMP_temperature;BMP_pressure;BME280_temperature;BME280_humidity;BME280_pressure;Samples;Min_cycle;Max_cycle;Signal;HPM_P1;HPM_P2
2022/08/10 00:00:54;;;;;;;5.25;4.85;;;;;;;;;;1614592;30;21660;-56
2022/08/10 00:01:46;;;;;;;5.82;4.78;;;;;;;;;;1614502;30;22238;-56
2022/08/10 00:02:38;;;;;;;5.75;4.63;;;;;;;;;;1618584;30;21621;-56
2022/08/10 00:03:29;;;;;;;4.97;4.57;;;;;;;;;;1618617;30;22597;-56
2022/08/10 00:04:22;;;;;;;5.97;5.07;;;;;;;;;;1617618;30;22492;-55
2022/08/10 00:05:13;;;;;;;5.80;4.57;;;;;;;;;;1619279;30;22087;-54
2022/08/10 00:06:06;;;;;;;5.65;4.60;;;;;;;;;;1620248;30;21693;-55
2022/08/10 00:06:57;;;;;;;5.07;4.72;;;;;;;;;;1616005;30;22248;-56
2022/08/10 00:07:50;;;;;;;5.40;4.90;;;;;;;;;;1618081;30;22324;-56
2022/08/10 00:08:41;;;;;;;5.53;5.13;;;;;;;;;;1618755;30;21759;-55
2022/08/10 00:09:33;;;;;;;5.32;4.82;;;;;;;;;;1618171;30;21647;-55
2022/08/10 00:10:25;;;;;;;8.02;4.65;;;;;;;;;;1620583;30;22433;-54
2022/08/10 00:11:18;;;;;;;7.75;5.28;;;;;;;;;;1620981;30;21622;-56
2022/08/10 00:12:09;;;;;;;5.53;4.88;;;;;;;;;;1617079;30;22062;-55
2022/08/10 00:13:01;;;;;;;6.07;5.47;;;;;;;;;;1618068;30;22109;-56
2022/08/10 00:13:54;;;;;;;5.30;4.88;;;;;;;;;;1620928;30;21670;-56
2022/08/10 00:14:46;;;;;;;6.30;4.93;;;;;;;;;;1617736;30;21669;-56
2022/08/10 00:15:37;;;;;;;5.50;5.00;;;;;;;;;;1614495;30;21739;-55
2022/08/10 00:16:30;;;;;;;5.50;5.00;;;;;;;;;;1618268;30;22631;-55
2022/08/10 00:17:21;;;;;;;9.07;5.65;;;;;;;;;;1618631;30;21683;-55
2022/08/10 00:18:13;;;;;;;8.13;5.43;;;;;;;;;;1615882;30;21718;-55
2022/08/10 00:19:04;;;;;;;5.75;5.30;;;;;;;;;;1617792;30;21651;-56
2022/08/10 00:19:57;;;;;;;5.82;5.22;;;;;;;;;;1618598;30;21699;-55
2022/08/10 00:20:48;;;;;;;5.47;4.57;;;;;;;;;;1618222;30;21738;-55
2022/08/10 00:21:40;;;;;;;5.72;5.20;;;;;;;;;;1619469;30;21793;-56
2022/08/10 00:22:31;;;;;;;6.30;5.18;;;;;;;;;;1617741;30;21603;-56
2022/08/10 00:23:24;;;;;;;7.63;5.72;;;;;;;;;;1617916;30;22294;-56
2022/08/10 00:24:15;;;;;;;5.70;4.97;;;;;;;;;;1622037;30;21728;-54
2022/08/10 00:25:08;;;;;;;5.43;4.82;;;;;;;;;;1618552;30;21787;-55
2022/08/10 00:26:00;;;;;;;5.70;5.20;;;;;;;;;;1618254;30;21823;-56
2022/08/10 00:26:53;;;;;;;6.35;5.22;;;;;;;;;;1619212;30;21712;-55
2022/08/10 00:27:44;;;;;;;5.78;5.28;;;;;;;;;;1620574;30;21642;-55
2022/08/10 00:28:37;;;;;;;5.38;4.93;;;;;;;;;;1617636;30;21628;-56
2022/08/10 00:29:30;;;;;;;5.97;5.47;;;;;;;;;;1620183;30;22177;-55
2022/08/10 00:30:22;;;;;;;4.97;4.57;;;;;;;;;;1618534;30;21867;-55
2022/08/10 00:31:14;;;;;;;6.82;5.30;;;;;;;;;;1619922;30;22484;-56
2022/08/10 00:32:07;;;;;;;8.23;4.93;;;;;;;;;;1618492;30;21720;-56
2022/08/10 00:32:58;;;;;;;5.40;4.90;;;;;;;;;;1619419;30;21623;-56
2022/08/10 00:33:50;;;;;;;5.95;5.30;;;;;;;;;;1621336;30;21654;-55
2022/08/10 00:34:41;;;;;;;5.20;4.80;;;;;;;;;;1620169;30;21764;-55
2022/08/10 00:35:34;;;;;;;6.82;4.95;;;;;;;;;;1619624;30;21655;-55
2022/08/10 00:36:25;;;;;;;6.43;5.07;;;;;;;;;;1619342;30;21887;-55
2022/08/10 00:37:18;;;;;;;7.50;5.20;;;;;;;;;;1620879;30;21646;-55
2022/08/10 00:38:10;;;;;;;6.78;4.90;;;;;;;;;;1621366;30;21616;-56
2022/08/10 00:39:02;;;;;;;6.35;5.22;;;;;;;;;;1618483;30;22819;-56
2022/08/10 00:39:53;;;;;;;5.43;4.93;;;;;;;;;;1615713;30;22540;-55
2022/08/10 00:40:46;;;;;;;5.70;5.20;;;;;;;;;;1618844;30;21625;-55
2022/08/10 00:41:37;;;;;;;6.50;5.53;;;;;;;;;;1617991;30;21722;-56
2022/08/10 00:42:29;;;;;;;5.03;4.63;;;;;;;;;;1620830;30;21795;-56
2022/08/10 00:43:20;;;;;;;5.50;5.05;;;;;;;;;;1620153;30;21633;-55
2022/08/10 00:44:12;;;;;;;5.75;5.25;;;;;;;;;;1620532;30;21622;-55
2022/08/10 00:45:06;;;;;;;5.57;5.18;;;;;;;;;;1621527;30;21663;-55
2022/08/10 00:45:59;;;;;;;5.32;4.85;;;;;;;;;;1619348;30;21795;-55
2022/08/10 00:46:50;;;;;;;6.72;5.22;;;;;;;;;;1617206;30;22599;-56
2022/08/10 00:47:42;;;;;;;5.68;5.22;;;;;;;;;;1620276;30;21662;-56
2022/08/10 00:48:33;;;;;;;5.63;5.07;;;;;;;;;;1620958;30;21900;-56
2022/08/10 00:49:25;;;;;;;6.75;4.97;;;;;;;;;;1619828;30;21861;-55
2022/08/10 00:50:17;;;;;;;5.35;4.88;;;;;;;;;;1620707;30;22127;-55
2022/08/10 00:51:10;;;;;;;6.40;5.30;;;;;;;;;;1619468;30;22536;-55
2022/08/10 00:52:02;;;;;;;5.78;5.30;;;;;;;;;;1619837;30;21613;-56
2022/08/10 00:52:54;;;;;;;5.45;4.95;;;;;;;;;;1620242;30;21814;-55
2022/08/10 00:53:45;;;;;;;5.82;5.32;;;;;;;;;;1620999;30;21632;-56
2022/08/10 00:54:38;;;;;;;6.03;4.88;;;;;;;;;;1619404;30;21786;-54
2022/08/10 00:55:29;;;;;;;7.32;4.93;;;;;;;;;;1621363;30;21691;-55
2022/08/10 00:56:21;;;;;;;5.38;4.93;;;;;;;;;;1618713;30;22506;-56
2022/08/10 00:57:14;;;;;;;9.68;4.97;;;;;;;;;;1620069;30;22554;-55
2022/08/10 00:58:08;;;;;;;5.07;4.68;;;;;;;;;;1618418;30;21613;-55
2022/08/10 00:58:59;;;;;;;5.43;4.90;;;;;;;;;;1613641;30;21708;-55
2022/08/10 00:59:52;;;;;;;4.72;4.28;;;;;;;;;;1618743;30;21764;-54
2022/08/10 01:00:46;;;;;;;9.48;5.32;;;;;;;;;;1623290;30;21641;-55
2022/08/10 01:01:38;;;;;;;5.65;5.18;;;;;;;;;;1624796;30;21786;-54
2022/08/10 01:02:31;;;;;;;5.53;5.13;;;;;;;;;;1618559;30;21623;-56
2022/08/10 01:03:23;;;;;;;5.53;5.03;;;;;;;;;;1618318;30;21744;-55
2022/08/10 01:04:14;;;;;;;5.50;4.78;;;;;;;;;;1619370;30;22512;-54
2022/08/10 01:05:10;;;;;;;5.38;4.88;;;;;;;;;;1619550;30;21658;-58
2022/08/10 01:06:10;;;;;;;5.05;4.63;;;;;;;;;;1620137;30;21813;-56
2022/08/10 01:07:29;;;;;;;6.75;5.18;;;;;;;;;;1616571;30;21631;-54
2022/08/10 01:08:32;;;;;;;5.50;4.95;;;;;;;;;;1620110;30;21861;-56
2022/08/10 01:09:33;;;;;;;5.88;5.28;;;;;;;;;;1620843;30;22580;-56
2022/08/10 01:10:43;;;;;;;6.40;4.68;;;;;;;;;;1618354;30;21978;-55
2022/08/10 01:11:50;;;;;;;7.50;4.88;;;;;;;;;;1621900;30;21941;-54
2022/08/10 01:12:50;;;;;;;6.00;4.63;;;;;;;;;;1619406;30;22402;-56
2022/08/10 01:13:48;;;;;;;5.07;4.65;;;;;;;;;;1621143;30;21771;-55
2022/08/10 01:14:50;;;;;;;5.18;4.78;;;;;;;;;;1613296;30;21733;-56
2022/08/10 01:15:53;;;;;;;5.13;4.63;;;;;;;;;;1615848;30;21862;-55
2022/08/10 01:16:50;;;;;;;5.47;4.97;;;;;;;;;;1620519;30;22331;-56
2022/08/10 01:17:51;;;;;;;5.30;4.68;;;;;;;;;;1619455;30;22165;-56
2022/08/10 01:18:51;;;;;;;12.77;4.85;;;;;;;;;;1620718;30;21698;-55
2022/08/10 01:19:57;;;;;;;5.30;4.90;;;;;;;;;;1615886;30;21878;-56
2022/08/10 01:21:13;;;;;;;8.18;5.20;;;;;;;;;;1618997;30;21768;-56
2022/08/10 01:22:31;;;;;;;5.78;5.28;;;;;;;;;;1619969;30;21605;-56
2022/08/10 01:24:17;;;;;;;5.57;4.80;;;;;;;;;;1619669;30;22262;-55
2022/08/10 01:25:43;;;;;;;6.82;4.78;;;;;;;;;;1618921;30;21725;-55
2022/08/10 01:27:00;;;;;;;4.70;4.28;;;;;;;;;;1616931;30;22509;-55
2022/08/10 01:28:03;;;;;;;8.43;4.85;;;;;;;;;;1610236;30;21867;-55
2022/08/10 01:29:13;;;;;;;5.70;5.22;;;;;;;;;;1618174;30;22482;-56
2022/08/10 01:30:09;;;;;;;4.80;4.50;;;;;;;;;;1620424;30;21776;-56
2022/08/10 01:31:03;;;;;;;4.97;4.22;;;;;;;;;;1619838;30;21585;-56
2022/08/10 01:32:01;;;;;;;20.70;5.35;;;;;;;;;;1621883;30;21615;-55
2022/08/10 01:33:01;;;;;;;13.38;5.00;;;;;;;;;;1617664;30;21947;-56
2022/08/10 01:33:57;;;;;;;13.40;4.88;;;;;;;;;;1619085;30;22179;-55
2022/08/10 01:34:53;;;;;;;15.95;5.78;;;;;;;;;;1621246;30;21775;-55
2022/08/10 01:35:51;;;;;;;14.80;4.80;;;;;;;;;;1618261;30;22047;-56
2022/08/10 01:36:48;;;;;;;14.75;5.22;;;;;;;;;;1621220;30;22489;-54
2022/08/10 01:37:49;;;;;;;7.43;5.20;;;;;;;;;;1624259;30;22672;-55
2022/08/10 01:38:47;;;;;;;12.05;4.68;;;;;;;;;;1615345;30;21850;-54
2022/08/10 01:39:43;;;;;;;8.10;4.60;;;;;;;;;;1617728;30;21581;-55
2022/08/10 01:40:41;;;;;;;9.75;4.85;;;;;;;;;;1617375;30;21641;-55
2022/08/10 01:41:39;;;;;;;9.55;4.95;;;;;;;;;;1617045;30;21750;-56
2022/08/10 01:42:34;;;;;;;10.32;5.28;;;;;;;;;;1621565;30;21754;-54
2022/08/10 01:43:29;;;;;;;6.28;5.07;;;;;;;;;;1618642;30;21668;-56
2022/08/10 01:44:30;;;;;;;5.78;4.72;;;;;;;;;;1619447;30;21606;-56
2022/08/10 01:45:24;;;;;;;10.50;5.03;;;;;;;;;;1621731;30;21907;-56
2022/08/10 01:46:18;;;;;;;11.05;5.25;;;;;;;;;;1619395;30;21716;-55
2022/08/10 01:48:30;;;;;;;5.22;4.72;;;;;;;;;;1618876;30;21625;-55
2022/08/10 01:49:23;;;;;;;7.18;5.38;;;;;;;;;;1618482;30;21704;-56
2022/08/10 01:50:22;;;;;;;5.90;5.40;;;;;;;;;;1619099;30;22076;-55
2022/08/10 01:51:18;;;;;;;5.75;4.60;;;;;;;;;;1618494;30;21770;-55
2022/08/10 01:52:10;;;;;;;8.65;4.75;;;;;;;;;;1613838;30;21761;-56
2022/08/10 01:53:09;;;;;;;6.38;5.22;;;;;;;;;;1617630;30;21676;-56
2022/08/10 01:54:05;;;;;;;5.00;4.60;;;;;;;;;;1618083;30;22009;-55
2022/08/10 01:54:58;;;;;;;5.65;5.13;;;;;;;;;;1620456;30;21940;-55
2022/08/10 01:55:51;;;;;;;6.57;4.55;;;;;;;;;;1620311;30;22123;-56
2022/08/10 01:56:46;;;;;;;7.70;5.28;;;;;;;;;;1618761;30;21677;-55
2022/08/10 01:57:41;;;;;;;5.07;4.68;;;;;;;;;;1619226;30;21660;-55
2022/08/10 01:58:35;;;;;;;4.75;4.35;;;;;;;;;;1618941;30;22485;-55
2022/08/10 01:59:32;;;;;;;7.53;5.13;;;;;;;;;;1618186;30;22128;-56
2022/08/10 02:00:28;;;;;;;8.55;4.63;;;;;;;;;;1620660;30;22028;-55
2022/08/10 02:01:23;;;;;;;5.93;5.07;;;;;;;;;;1619186;30;21695;-55
2022/08/10 02:02:17;;;;;;;5.57;5.07;;;;;;;;;;1618259;30;21659;-56
2022/08/10 02:03:11;;;;;;;6.50;5.45;;;;;;;;;;1625765;30;21604;-54
2022/08/10 02:04:08;;;;;;;6.07;5.07;;;;;;;;;;1619386;30;22509;-54
2022/08/10 02:05:03;;;;;;;9.30;4.65;;;;;;;;;;1619906;30;22319;-56
2022/08/10 02:05:57;;;;;;;12.75;4.97;;;;;;;;;;1618231;30;21678;-56
2022/08/10 02:06:52;;;;;;;5.10;4.65;;;;;;;;;;1615649;30;21827;-55
2022/08/10 02:07:47;;;;;;;6.15;5.00;;;;;;;;;;1616216;30;21739;-55
2022/08/10 02:08:39;;;;;;;5.35;4.68;;;;;;;;;;1622451;30;21989;-55
2022/08/10 02:09:37;;;;;;;14.43;5.57;;;;;;;;;;1619761;30;21588;-55
2022/08/10 02:10:30;;;;;;;12.82;5.18;;;;;;;;;;1620198;30;22665;-54
2022/08/10 02:11:24;;;;;;;14.15;4.68;;;;;;;;;;1622044;30;21965;-56
2022/08/10 02:12:20;;;;;;;8.00;5.28;;;;;;;;;;1620120;30;21625;-54
2022/08/10 02:13:15;;;;;;;12.20;5.60;;;;;;;;;;1618288;30;22375;-56
2022/08/10 02:14:08;;;;;;;8.48;4.75;;;;;;;;;;1619311;30;21605;-55
2022/08/10 02:15:05;;;;;;;8.48;4.97;;;;;;;;;;1617942;30;21922;-55
2022/08/10 02:16:00;;;;;;;11.45;5.13;;;;;;;;;;1619086;30;22319;-54
2022/08/10 02:16:52;;;;;;;12.48;5.30;;;;;;;;;;1618524;30;22446;-55
2022/08/10 02:17:50;;;;;;;7.85;4.95;;;;;;;;;;1618144;30;21630;-55
2022/08/10 02:18:44;;;;;;;10.10;4.68;;;;;;;;;;1620610;30;21687;-55
2022/08/10 02:19:39;;;;;;;18.15;5.50;;;;;;;;;;1622110;30;22186;-55
2022/08/10 02:20:36;;;;;;;13.60;5.82;;;;;;;;;;1619124;30;22080;-56
2022/08/10 02:21:29;;;;;;;6.38;5.30;;;;;;;;;;1620538;30;21611;-56
2022/08/10 02:22:22;;;;;;;18.75;5.38;;;;;;;;;;1619777;30;21655;-55
2022/08/10 02:23:20;;;;;;;8.70;5.10;;;;;;;;;;1620345;30;21685;-55
2022/08/10 02:24:14;;;;;;;5.20;4.75;;;;;;;;;;1622308;30;21556;-55
2022/08/10 02:25:08;;;;;;;4.85;4.38;;;;;;;;;;1619020;30;22068;-55
2022/08/10 02:26:03;;;;;;;6.25;5.05;;;;;;;;;;1622140;30;21659;-56
2022/08/10 02:26:55;;;;;;;7.82;4.65;;;;;;;;;;1619695;30;21646;-55
2022/08/10 02:27:47;;;;;;;5.35;4.93;;;;;;;;;;1621397;30;21673;-55
2022/08/10 02:28:41;;;;;;;7.70;4.82;;;;;;;;;;1617706;30;21624;-55
2022/08/10 02:29:34;;;;;;;5.80;5.28;;;;;;;;;;1620076;30;21591;-55
2022/08/10 02:30:27;;;;;;;7.00;4.10;;;;;;;;;;1619583;30;21607;-56
2022/08/10 02:31:23;;;;;;;12.90;5.30;;;;;;;;;;1618911;30;22297;-55
2022/08/10 02:32:16;;;;;;;9.93;5.18;;;;;;;;;;1618674;30;21692;-54
2022/08/10 02:33:09;;;;;;;9.93;4.65;;;;;;;;;;1614344;30;21746;-55
2022/08/10 02:34:02;;;;;;;6.95;4.93;;;;;;;;;;1617941;30;21892;-55
2022/08/10 02:34:55;;;;;;;5.72;5.13;;;;;;;;;;1617970;30;21614;-56
2022/08/10 02:35:50;;;;;;;5.50;4.68;;;;;;;;;;1620015;30;21628;-56
2022/08/10 02:36:49;;;;;;;5.63;4.97;;;;;;;;;;1618584;30;21637;-56
2022/08/10 02:37:45;;;;;;;13.23;5.25;;;;;;;;;;1619596;30;21736;-55
2022/08/10 02:38:42;;;;;;;5.55;5.03;;;;;;;;;;1613316;30;21692;-56
2022/08/10 02:39:36;;;;;;;5.97;5.40;;;;;;;;;;1619437;30;21582;-55
2022/08/10 02:40:30;;;;;;;5.53;5.03;;;;;;;;;;1618266;30;21810;-55
2022/08/10 02:41:32;;;;;;;5.78;5.28;;;;;;;;;;1620200;30;22316;-55
2022/08/10 02:42:27;;;;;;;5.68;4.97;;;;;;;;;;1619134;30;22231;-55
2022/08/10 02:43:28;;;;;;;5.18;4.78;;;;;;;;;;1618439;30;21747;-56
2022/08/10 02:44:26;;;;;;;7.35;5.22;;;;;;;;;;1619057;30;22435;-55
2022/08/10 02:45:25;;;;;;;7.57;4.60;;;;;;;;;;1618123;30;22028;-56
2022/08/10 02:46:27;;;;;;;5.47;4.97;;;;;;;;;;1618720;30;21692;-55
2022/08/10 02:47:26;;;;;;;7.85;5.00;;;;;;;;;;1619187;30;22400;-56
2022/08/10 02:48:22;;;;;;;5.78;5.20;;;;;;;;;;1618559;30;21784;-55
2022/08/10 02:49:21;;;;;;;5.45;4.95;;;;;;;;;;1619345;30;22451;-56
2022/08/10 02:50:22;;;;;;;5.70;5.05;;;;;;;;;;1621088;30;21566;-55
2022/08/10 02:51:19;;;;;;;6.55;4.63;;;;;;;;;;1619511;30;21630;-56
2022/08/10 02:52:18;;;;;;;7.80;5.00;;;;;;;;;;1617232;30;22220;-55
2022/08/10 02:53:17;;;;;;;8.88;4.60;;;;;;;;;;1620048;30;22552;-55
2022/08/10 02:54:19;;;;;;;5.82;4.93;;;;;;;;;;1618209;30;21638;-55
2022/08/10 02:55:19;;;;;;;11.43;5.05;;;;;;;;;;1618226;30;21755;-55
2022/08/10 02:56:20;;;;;;;5.38;4.45;;;;;;;;;;1617326;30;21763;-55
2022/08/10 02:57:19;;;;;;;8.98;5.43;;;;;;;;;;1614720;30;21798;-56
2022/08/10 02:58:15;;;;;;;5.68;4.72;;;;;;;;;;1619940;30;21608;-55
2022/08/10 02:59:14;;;;;;;10.00;5.43;;;;;;;;;;1617736;30;21654;-56
2022/08/10 03:00:08;;;;;;;9.35;4.43;;;;;;;;;;1615855;30;21600;-55
2022/08/10 03:01:04;;;;;;;6.82;4.60;;;;;;;;;;1621303;30;21683;-56
2022/08/10 03:02:01;;;;;;;5.60;4.40;;;;;;;;;;1618437;30;21703;-55
2022/08/10 03:02:56;;;;;;;5.00;4.60;;;;;;;;;;1619479;30;21605;-56
2022/08/10 03:03:59;;;;;;;5.47;5.03;;;;;;;;;;1619817;30;22459;-56
2022/08/10 03:04:55;;;;;;;5.50;4.47;;;;;;;;;;1618920;30;21627;-55
2022/08/10 03:05:52;;;;;;;11.85;4.88;;;;;;;;;;1620654;30;21713;-56
2022/08/10 03:06:54;;;;;;;5.28;4.78;;;;;;;;;;1618554;30;21923;-55
2022/08/10 03:07:52;;;;;;;6.15;4.88;;;;;;;;;;1616184;30;22689;-55
2022/08/10 03:08:45;;;;;;;6.95;4.82;;;;;;;;;;1618388;30;22255;-55
2022/08/10 03:09:39;;;;;;;7.30;4.90;;;;;;;;;;1618735;30;21762;-56
2022/08/10 03:10:38;;;;;;;4.95;4.55;;;;;;;;;;1617924;30;21617;-56
2022/08/10 03:11:32;;;;;;;4.95;4.55;;;;;;;;;;1622005;30;22108;-56
2022/08/10 03:12:27;;;;;;;8.93;5.70;;;;;;;;;;1618358;30;21739;-55
2022/08/10 03:13:19;;;;;;;4.88;4.47;;;;;;;;;;1618912;30;21795;-56
2022/08/10 03:14:13;;;;;;;6.53;4.70;;;;;;;;;;1620768;30;22185;-56
2022/08/10 03:15:07;;;;;;;6.47;4.63;;;;;;;;;;1618560;30;22418;-55
2022/08/10 03:16:02;;;;;;;4.70;4.28;;;;;;;;;;1617825;30;21792;-55
2022/08/10 03:16:57;;;;;;;10.10;4.78;;;;;;;;;;1619201;30;22106;-56
2022/08/10 03:17:52;;;;;;;5.78;5.18;;;;;;;;;;1618004;30;21607;-56
2022/08/10 03:18:45;;;;;;;6.03;5.05;;;;;;;;;;1618154;30;21598;-55
2022/08/10 03:19:38;;;;;;;4.45;4.05;;;;;;;;;;1621180;30;22394;-56
2022/08/10 03:20:32;;;;;;;9.57;4.90;;;;;;;;;;1619904;30;22533;-54
2022/08/10 03:21:27;;;;;;;6.65;4.22;;;;;;;;;;1619155;30;21622;-54
2022/08/10 03:22:19;;;;;;;5.43;4.90;;;;;;;;;;1620256;30;22096;-56
2022/08/10 03:23:15;;;;;;;6.20;4.72;;;;;;;;;;1618940;30;21617;-56
2022/08/10 03:24:08;;;;;;;8.43;5.15;;;;;;;;;;1621925;30;22494;-55
2022/08/10 03:25:02;;;;;;;5.55;4.85;;;;;;;;;;1619082;30;21699;-55
2022/08/10 03:25:56;;;;;;;4.82;4.40;;;;;;;;;;1619109;30;21666;-55
2022/08/10 03:26:50;;;;;;;6.00;5.40;;;;;;;;;;1619424;30;22215;-55
2022/08/10 03:27:42;;;;;;;5.75;4.80;;;;;;;;;;1620108;30;21764;-56
2022/08/10 03:28:36;;;;;;;4.95;4.50;;;;;;;;;;1617874;30;21846;-55
2022/08/10 03:29:27;;;;;;;7.82;5.63;;;;;;;;;;1620417;30;21670;-56
2022/08/10 03:30:20;;;;;;;5.85;4.72;;;;;;;;;;1620237;30;22119;-56
2022/08/10 03:31:12;;;;;;;5.32;4.85;;;;;;;;;;1616748;30;21671;-55
2022/08/10 03:32:07;;;;;;;8.23;4.57;;;;;;;;;;1619116;30;21813;-56
2022/08/10 03:33:00;;;;;;;8.60;4.93;;;;;;;;;;1618854;30;23081;-55
2022/08/10 03:33:53;;;;;;;5.30;4.80;;;;;;;;;;1619305;30;21591;-56
2022/08/10 03:34:44;;;;;;;5.28;4.43;;;;;;;;;;1620558;30;21685;-56
2022/08/10 03:35:37;;;;;;;7.22;5.05;;;;;;;;;;1619414;30;21595;-55
2022/08/10 03:36:28;;;;;;;5.05;4.65;;;;;;;;;;1618750;30;21925;-56
2022/08/10 03:37:21;;;;;;;7.57;5.10;;;;;;;;;;1620082;30;21757;-56
2022/08/10 03:38:14;;;;;;;5.07;4.68;;;;;;;;;;1618435;30;22004;-55
2022/08/10 03:39:05;;;;;;;5.93;4.78;;;;;;;;;;1619056;30;21606;-56
2022/08/10 03:39:57;;;;;;;5.05;4.55;;;;;;;;;;1620619;30;21607;-54
2022/08/10 03:40:51;;;;;;;5.20;4.80;;;;;;;;;;1618285;30;21630;-55
2022/08/10 03:41:47;;;;;;;4.80;4.40;;;;;;;;;;1618817;30;22588;-55
2022/08/10 03:42:41;;;;;;;5.97;4.63;;;;;;;;;;1618897;30;21592;-55
2022/08/10 03:43:33;;;;;;;5.22;4.80;;;;;;;;;;1618669;30;21657;-55
2022/08/10 03:44:29;;;;;;;4.97;4.47;;;;;;;;;;1619932;30;22452;-55
2022/08/10 03:45:22;;;;;;;4.72;4.32;;;;;;;;;;1621428;30;21655;-56
2022/08/10 03:46:18;;;;;;;4.45;4.05;;;;;;;;;;1617596;30;21656;-57
2022/08/10 03:47:13;;;;;;;5.68;5.18;;;;;;;;;;1617510;30;22372;-54
2022/08/10 03:48:07;;;;;;;7.13;4.70;;;;;;;;;;1617136;30;21592;-55
2022/08/10 03:49:02;;;;;;;4.85;4.38;;;;;;;;;;1618617;30;21640;-55
2022/08/10 03:49:57;;;;;;;16.75;4.75;;;;;;;;;;1612844;30;22776;-55
2022/08/10 03:50:49;;;;;;;17.05;5.10;;;;;;;;;;1618505;30;22243;-56
2022/08/10 03:51:42;;;;;;;5.15;4.72;;;;;;;;;;1618519;30;21949;-55
2022/08/10 03:52:33;;;;;;;7.20;4.70;;;;;;;;;;1612483;30;21635;-57
2022/08/10 03:53:26;;;;;;;9.15;4.53;;;;;;;;;;1621181;30;21678;-55
2022/08/10 03:54:18;;;;;;;6.82;4.53;;;;;;;;;;1619655;30;22401;-55
2022/08/10 03:55:11;;;;;;;5.10;4.60;;;;;;;;;;1617638;30;21780;-55
2022/08/10 03:56:03;;;;;;;7.35;4.00;;;;;;;;;;1618301;30;21762;-56
2022/08/10 03:56:56;;;;;;;9.45;4.88;;;;;;;;;;1614685;30;21694;-55
2022/08/10 03:57:47;;;;;;;5.10;4.45;;;;;;;;;;1620045;30;21621;-56
2022/08/10 03:58:38;;;;;;;6.70;4.90;;;;;;;;;;1619320;30;21948;-55
2022/08/10 03:59:31;;;;;;;5.78;4.65;;;;;;;;;;1620409;30;21641;-56
2022/08/10 04:00:23;;;;;;;4.75;4.35;;;;;;;;;;1618683;30;22524;-56
2022/08/10 04:01:16;;;;;;;4.75;4.38;;;;;;;;;;1619119;30;22002;-55
2022/08/10 04:02:08;;;;;;;5.38;4.55;;;;;;;;;;1618369;30;21892;-56
2022/08/10 04:03:03;;;;;;;5.00;4.60;;;;;;;;;;1617230;30;21614;-55
2022/08/10 04:03:54;;;;;;;4.60;4.00;;;;;;;;;;1619051;30;22029;-55
2022/08/10 04:04:46;;;;;;;5.00;4.50;;;;;;;;;;1619092;30;21677;-54
2022/08/10 04:05:37;;;;;;;8.13;4.97;;;;;;;;;;1617302;30;21689;-55
2022/08/10 04:06:30;;;;;;;9.98;4.38;;;;;;;;;;1618271;30;21598;-55
2022/08/10 04:07:22;;;;;;;7.38;4.75;;;;;;;;;;1619080;30;22674;-56
2022/08/10 04:08:15;;;;;;;4.80;4.25;;;;;;;;;;1620226;30;21617;-55
2022/08/10 04:09:06;;;;;;;5.00;4.60;;;;;;;;;;1619877;30;22678;-56
2022/08/10 04:09:58;;;;;;;4.57;4.13;;;;;;;;;;1621492;30;21915;-55
2022/08/10 04:10:49;;;;;;;5.90;5.03;;;;;;;;;;1619794;30;22511;-55
2022/08/10 04:11:42;;;;;;;4.38;4.03;;;;;;;;;;1620955;30;22049;-56
2022/08/10 04:12:33;;;;;;;4.57;4.15;;;;;;;;;;1619377;30;21813;-54
2022/08/10 04:13:25;;;;;;;7.03;4.18;;;;;;;;;;1618586;30;22572;-56
2022/08/10 04:14:16;;;;;;;8.27;4.28;;;;;;;;;;1622326;30;21678;-56
2022/08/10 04:15:10;;;;;;;4.45;4.05;;;;;;;;;;1618534;30;21645;-56
2022/08/10 04:16:01;;;;;;;5.43;4.78;;;;;;;;;;1619731;30;21731;-55
2022/08/10 04:16:53;;;;;;;4.60;4.30;;;;;;;;;;1623554;30;22531;-55
2022/08/10 04:17:44;;;;;;;5.53;4.13;;;;;;;;;;1618910;30;21753;-55
2022/08/10 04:18:38;;;;;;;8.00;4.40;;;;;;;;;;1618758;30;21615;-56
2022/08/10 04:19:37;;;;;;;6.15;4.47;;;;;;;;;;1617660;30;21615;-55
2022/08/10 04:20:37;;;;;;;4.95;4.45;;;;;;;;;;1618579;30;21700;-56
2022/08/10 04:21:36;;;;;;;5.30;3.63;;;;;;;;;;1619399;30;21692;-56
2022/08/10 04:22:29;;;;;;;4.60;4.20;;;;;;;;;;1619542;30;21791;-56
2022/08/10 04:23:24;;;;;;;4.18;3.78;;;;;;;;;;1618319;30;21724;-54
2022/08/10 04:24:21;;;;;;;4.97;4.10;;;;;;;;;;1621382;30;21608;-55
2022/08/10 04:25:14;;;;;;;4.35;4.03;;;;;;;;;;1614514;30;21738;-54
2022/08/10 04:26:06;;;;;;;5.00;4.28;;;;;;;;;;1618220;30;21830;-56
2022/08/10 04:26:58;;;;;;;6.47;4.05;;;;;;;;;;1619700;30;21824;-56
2022/08/10 04:27:50;;;;;;;4.45;4.05;;;;;;;;;;1619676;30;21824;-55
2022/08/10 04:28:43;;;;;;;7.35;3.47;;;;;;;;;;1618401;30;22036;-55
2022/08/10 04:29:35;;;;;;;3.92;3.70;;;;;;;;;;1620932;30;21725;-54
2022/08/10 04:30:28;;;;;;;6.95;3.90;;;;;;;;;;1619479;30;21643;-55
2022/08/10 04:31:22;;;;;;;4.50;4.10;;;;;;;;;;1618489;30;21671;-56
2022/08/10 04:32:16;;;;;;;9.88;4.22;;;;;;;;;;1619299;30;22009;-55
2022/08/10 04:33:11;;;;;;;4.20;3.80;;;;;;;;;;1619206;30;21631;-56
2022/08/10 04:34:04;;;;;;;4.13;3.83;;;;;;;;;;1614590;30;21653;-56
2022/08/10 04:34:58;;;;;;;4.97;3.88;;;;;;;;;;1620390;30;21678;-56
2022/08/10 04:35:51;;;;;;;5.45;3.42;;;;;;;;;;1615543;30;23175;-56
2022/08/10 04:36:44;;;;;;;3.85;3.55;;;;;;;;;;1619300;30;21623;-56
2022/08/10 04:37:38;;;;;;;4.85;4.35;;;;;;;;;;1618912;30;21724;-55
2022/08/10 04:38:32;;;;;;;5.53;3.83;;;;;;;;;;1619510;30;22112;-56
2022/08/10 04:39:23;;;;;;;5.72;4.25;;;;;;;;;;1619870;30;21917;-55
2022/08/10 04:40:18;;;;;;;4.63;3.75;;;;;;;;;;1620128;30;21635;-55
2022/08/10 04:41:10;;;;;;;9.10;3.88;;;;;;;;;;1620211;30;21621;-56
2022/08/10 04:42:03;;;;;;;4.13;3.70;;;;;;;;;;1619151;30;21765;-55
2022/08/10 04:42:55;;;;;;;4.28;3.88;;;;;;;;;;1621887;30;21699;-56
2022/08/10 04:43:47;;;;;;;5.47;3.92;;;;;;;;;;1619301;30;22077;-55
2022/08/10 04:44:38;;;;;;;4.35;3.78;;;;;;;;;;1620649;30;22693;-55
2022/08/10 04:45:31;;;;;;;4.32;3.90;;;;;;;;;;1621308;30;21605;-55
2022/08/10 04:46:22;;;;;;;4.82;3.45;;;;;;;;;;1619523;30;22414;-56
2022/08/10 04:47:14;;;;;;;4.45;4.05;;;;;;;;;;1620604;30;22563;-55
2022/08/10 04:48:06;;;;;;;4.18;3.80;;;;;;;;;;1620407;30;21616;-56
2022/08/10 04:48:58;;;;;;;4.05;3.75;;;;;;;;;;1620405;30;21619;-55
2022/08/10 04:49:50;;;;;;;4.82;3.72;;;;;;;;;;1619486;30;21635;-56
2022/08/10 04:50:43;;;;;;;6.00;3.67;;;;;;;;;;1623349;30;21638;-55
2022/08/10 04:51:34;;;;;;;5.80;3.88;;;;;;;;;;1620539;30;21656;-56
2022/08/10 04:52:26;;;;;;;4.05;3.67;;;;;;;;;;1620823;30;22127;-55
2022/08/10 04:53:18;;;;;;;5.13;3.55;;;;;;;;;;1621826;30;21620;-55
2022/08/10 04:54:10;;;;;;;6.03;3.63;;;;;;;;;;1620063;30;21653;-55
2022/08/10 04:55:01;;;;;;;4.32;3.42;;;;;;;;;;1619716;30;22434;-55
2022/08/10 04:55:53;;;;;;;6.85;3.95;;;;;;;;;;1619113;30;21687;-55
2022/08/10 04:56:44;;;;;;;4.00;3.70;;;;;;;;;;1618231;30;21788;-56
2022/08/10 04:57:37;;;;;;;4.05;3.75;;;;;;;;;;1619281;30;21653;-56
2022/08/10 04:58:28;;;;;;;4.60;3.90;;;;;;;;;;1620852;30;21588;-56
2022/08/10 05:00:20;;;;;;;6.50;3.50;;;;;;;;;;1620480;30;22050;-55
2022/08/10 05:01:11;;;;;;;4.20;3.83;;;;;;;;;;1617265;30;21651;-56
2022/08/10 05:02:03;;;;;;;6.10;3.78;;;;;;;;;;1618046;30;22473;-56
2022/08/10 05:02:55;;;;;;;3.70;3.25;;;;;;;;;;1619841;30;21654;-56
2022/08/10 05:03:47;;;;;;;16.15;3.88;;;;;;;;;;1620162;30;22465;-56
2022/08/10 05:04:38;;;;;;;8.35;3.72;;;;;;;;;;1619207;30;22672;-56
2022/08/10 05:05:31;;;;;;;5.57;3.50;;;;;;;;;;1619285;30;21685;-55
2022/08/10 05:06:23;;;;;;;3.55;3.25;;;;;;;;;;1623306;30;21713;-55
2022/08/10 05:07:16;;;;;;;5.35;3.70;;;;;;;;;;1617855;30;22038;-55
2022/08/10 05:08:07;;;;;;;3.78;3.42;;;;;;;;;;1618782;30;21592;-55
2022/08/10 05:09:00;;;;;;;5.28;3.97;;;;;;;;;;1624116;30;21595;-54
2022/08/10 05:09:53;;;;;;;3.30;3.10;;;;;;;;;;1618793;30;21717;-55
2022/08/10 05:10:45;;;;;;;4.20;2.72;;;;;;;;;;1618291;30;21676;-55
2022/08/10 05:11:36;;;;;;;3.83;3.42;;;;;;;;;;1623244;30;21614;-55
2022/08/10 05:12:28;;;;;;;3.88;3.35;;;;;;;;;;1618476;30;21723;-55
2022/08/10 05:13:20;;;;;;;3.90;3.55;;;;;;;;;;1620169;30;22026;-56
2022/08/10 05:14:12;;;;;;;3.55;3.35;;;;;;;;;;1622632;30;22214;-55
2022/08/10 05:15:09;;;;;;;5.20;3.25;;;;;;;;;;1618536;30;21716;-56
2022/08/10 05:16:01;;;;;;;5.22;3.38;;;;;;;;;;1618599;30;21587;-55
2022/08/10 05:16:52;;;;;;;3.50;2.80;;;;;;;;;;1616245;30;21601;-55
2022/08/10 05:17:45;;;;;;;3.60;3.35;;;;;;;;;;1614447;30;21676;-56
2022/08/10 05:18:37;;;;;;;5.60;2.97;;;;;;;;;;1620157;30;21756;-55
2022/08/10 05:19:28;;;;;;;5.32;3.33;;;;;;;;;;1621690;30;22282;-56
2022/08/10 05:20:20;;;;;;;9.98;3.03;;;;;;;;;;1617311;30;21670;-56
2022/08/10 05:21:13;;;;;;;4.10;3.25;;;;;;;;;;1616982;30;21594;-55
2022/08/10 05:22:05;;;;;;;3.28;2.97;;;;;;;;;;1619911;30;21998;-56
2022/08/10 05:22:57;;;;;;;4.05;3.67;;;;;;;;;;1620783;30;22117;-55
2022/08/10 05:23:49;;;;;;;3.25;3.05;;;;;;;;;;1619025;30;21722;-55
2022/08/10 05:24:40;;;;;;;3.67;3.35;;;;;;;;;;1618639;30;21863;-55
2022/08/10 05:25:32;;;;;;;5.80;3.30;;;;;;;;;;1614833;30;21853;-56
2022/08/10 05:26:23;;;;;;;5.95;3.15;;;;;;;;;;1619000;30;22482;-55
2022/08/10 05:27:15;;;;;;;3.78;3.28;;;;;;;;;;1621839;30;21622;-55
2022/08/10 05:28:07;;;;;;;4.80;2.70;;;;;;;;;;1618350;30;21716;-55
2022/08/10 05:28:59;;;;;;;8.40;3.03;;;;;;;;;;1620194;30;21771;-55